createdAt,value
2017-09-20T00:02:26.653Z,80.00
2017-09-20T00:04:53.526Z,79.80
2017-09-20T00:07:20.541Z,80.00
2017-09-20T00:09:47.434Z,79.80
2017-09-20T00:12:15.091Z,79.70
2017-09-20T00:14:42.045Z,80.00
2017-09-20T00:17:09.675Z,80.40
2017-09-20T00:19:36.611Z,79.80
2017-09-20T00:22:03.534Z,79.90
2017-09-20T00:24:30.529Z,79.80
2017-09-20T00:26:57.413Z,80.00
2017-09-20T00:29:24.279Z,80.60
2017-09-20T00:31:51.346Z,80.40
2017-09-20T00:34:18.244Z,80.30
2017-09-20T00:36:45.227Z,79.70
2017-09-20T00:39:12.096Z,79.80
2017-09-20T00:41:39.051Z,79.70
2017-09-20T00:44:06.007Z,79.40
2017-09-20T00:46:32.892Z,79.80
2017-09-20T00:48:59.860Z,79.50
2017-09-20T00:51:26.753Z,78.80
2017-09-20T00:53:53.698Z,78.50
2017-09-20T00:56:21.504Z,79.20
2017-09-20T00:58:48.471Z,79.10
2017-09-20T01:01:15.539Z,79.00
2017-09-20T01:03:42.512Z,79.30
2017-09-20T01:06:10.144Z,79.10
2017-09-20T01:08:37.122Z,78.40
2017-09-20T01:11:04.037Z,78.50
2017-09-20T01:13:30.927Z,78.00
2017-09-20T01:15:57.927Z,78.00
2017-09-20T01:18:24.799Z,78.60
2017-09-20T01:21:18.652Z,78.50
2017-09-20T01:23:45.657Z,78.40
2017-09-20T01:26:12.737Z,78.70
2017-09-20T01:28:39.722Z,78.80
2017-09-20T01:31:07.523Z,78.90
2017-09-20T01:33:34.479Z,79.90
2017-09-20T01:36:01.438Z,78.60
2017-09-20T01:38:28.428Z,78.60
2017-09-20T01:40:56.095Z,79.30
2017-09-20T01:43:23.816Z,79.40
2017-09-20T01:45:50.680Z,78.60
2017-09-20T01:48:17.647Z,79.00
2017-09-20T01:50:45.283Z,79.00
2017-09-20T01:53:12.156Z,78.90
2017-09-20T01:55:39.108Z,78.90
2017-09-20T01:58:06.835Z,78.30
2017-09-20T02:00:33.786Z,78.20
2017-09-20T02:03:00.701Z,77.40
2017-09-20T02:05:27.632Z,77.00
2017-09-20T02:07:54.495Z,77.30
2017-09-20T02:10:21.418Z,77.10
2017-09-20T02:12:48.376Z,77.30
2017-09-20T02:15:15.292Z,78.30
2017-09-20T02:17:42.925Z,78.80
2017-09-20T02:20:09.896Z,79.00
2017-09-20T02:22:37.567Z,78.30
2017-09-20T02:25:04.536Z,78.30
2017-09-20T02:27:31.412Z,78.50
2017-09-20T02:29:58.338Z,78.30
2017-09-20T02:32:25.272Z,78.10
2017-09-20T02:34:52.328Z,77.60
2017-09-20T02:37:19.267Z,77.80
2017-09-20T02:39:46.178Z,78.30
2017-09-20T02:42:13.189Z,78.70
2017-09-20T02:44:40.097Z,79.30
2017-09-20T02:47:07.048Z,79.60
2017-09-20T02:49:34.004Z,79.90
2017-09-20T02:52:00.964Z,80.20
2017-09-20T02:54:28.027Z,80.30
2017-09-20T02:56:54.890Z,80.50
2017-09-20T02:59:21.809Z,80.90
2017-09-20T03:01:48.951Z,80.90
2017-09-20T03:04:15.911Z,80.70
2017-09-20T03:06:42.829Z,80.90
2017-09-20T03:09:09.817Z,80.70
2017-09-20T03:11:36.727Z,80.80
2017-09-20T03:14:03.688Z,80.60
2017-09-20T03:16:30.640Z,80.50
2017-09-20T03:18:57.527Z,80.40
2017-09-20T03:21:24.463Z,80.40
2017-09-20T03:23:51.516Z,80.60
2017-09-20T03:26:18.385Z,80.30
2017-09-20T03:28:45.415Z,80.40
2017-09-20T03:31:12.345Z,80.70
2017-09-20T03:33:39.280Z,80.80
2017-09-20T03:36:06.148Z,80.90
2017-09-20T03:38:33.096Z,81.10
2017-09-20T03:40:59.961Z,80.60
2017-09-20T03:43:26.946Z,80.20
2017-09-20T03:45:53.911Z,79.80
2017-09-20T03:48:20.872Z,79.70
2017-09-20T03:50:47.786Z,79.20
2017-09-20T03:53:14.734Z,77.70
2017-09-20T03:55:41.625Z,77.70
2017-09-20T03:58:09.337Z,77.90
2017-09-20T04:00:36.238Z,77.80
2017-09-20T04:03:03.877Z,78.70
2017-09-20T04:05:30.824Z,78.60
2017-09-20T04:07:57.780Z,78.60
2017-09-20T04:10:24.731Z,78.10
2017-09-20T04:12:51.706Z,77.90
2017-09-20T04:15:18.583Z,77.90
2017-09-20T04:17:53.507Z,78.00
2017-09-20T04:20:23.508Z,78.50
2017-09-20T04:22:50.460Z,79.20
2017-09-20T04:25:17.404Z,79.80
2017-09-20T04:27:45.670Z,79.90
2017-09-20T04:30:16.504Z,79.20
2017-09-20T04:32:53.806Z,79.20
2017-09-20T04:35:23.120Z,79.70
2017-09-20T04:40:41.922Z,80.10
2017-09-20T04:43:15.097Z,79.90
2017-09-20T04:45:44.315Z,79.60
2017-09-20T04:48:11.730Z,79.90
2017-09-20T04:50:39.472Z,80.40
2017-09-20T04:53:06.477Z,80.40
2017-09-20T04:55:33.427Z,80.30
2017-09-20T04:58:00.301Z,79.80
2017-09-20T05:00:27.173Z,79.50
2017-09-20T05:02:54.157Z,79.40
2017-09-20T05:05:21.041Z,79.60
2017-09-20T05:07:47.916Z,79.70
2017-09-20T05:10:15.625Z,79.50
2017-09-20T05:12:42.509Z,79.50
2017-09-20T05:15:09.459Z,80.20
2017-09-20T05:17:37.179Z,80.20
2017-09-20T05:20:04.056Z,80.20
2017-09-20T05:22:31.001Z,80.20
2017-09-20T05:24:57.953Z,80.30
2017-09-20T05:27:24.911Z,80.40
2017-09-20T05:29:51.880Z,80.50
2017-09-20T05:32:18.920Z,80.30
2017-09-20T05:34:45.920Z,80.50
2017-09-20T05:37:12.844Z,80.80
2017-09-20T05:39:39.756Z,80.90
2017-09-20T05:42:07.436Z,80.30
2017-09-20T05:44:34.328Z,80.30
2017-09-20T05:47:01.304Z,80.30
2017-09-20T05:49:28.185Z,80.40
2017-09-20T05:51:55.066Z,80.40
2017-09-20T05:54:22.080Z,80.20
2017-09-20T05:56:48.965Z,80.10
2017-09-20T05:59:15.910Z,80.00
2017-09-20T06:01:42.800Z,79.90
2017-09-20T06:04:10.417Z,79.70
2017-09-20T06:06:37.373Z,79.70
2017-09-20T06:09:04.512Z,79.70
2017-09-20T06:11:31.551Z,79.70
2017-09-20T06:13:58.795Z,79.50
2017-09-20T06:16:25.656Z,79.80
2017-09-20T06:18:52.684Z,79.70
2017-09-20T06:21:19.555Z,79.70
2017-09-20T06:23:46.461Z,79.60
2017-09-20T06:26:13.405Z,79.60
2017-09-20T06:28:40.365Z,79.70
2017-09-20T06:31:07.386Z,79.30
2017-09-20T06:33:34.337Z,79.40
2017-09-20T06:36:01.288Z,79.10
2017-09-20T06:38:28.167Z,78.90
2017-09-20T06:40:55.116Z,79.00
2017-09-20T06:43:22.068Z,78.70
2017-09-20T06:45:49.052Z,79.10
2017-09-20T06:48:16.771Z,78.50
2017-09-20T06:50:43.733Z,78.50
2017-09-20T06:53:10.685Z,78.40
2017-09-20T06:55:37.551Z,78.10
2017-09-20T06:58:09.889Z,78.70
2017-09-20T07:00:36.852Z,78.00
2017-09-20T07:03:03.726Z,78.10
2017-09-20T07:05:31.404Z,78.00
2017-09-20T07:07:58.289Z,78.00
2017-09-20T07:10:25.231Z,78.30
2017-09-20T07:12:52.112Z,78.20
2017-09-20T07:15:19.736Z,78.20
2017-09-20T07:17:46.684Z,78.20
2017-09-20T07:20:13.598Z,77.80
2017-09-20T07:22:40.503Z,77.50
2017-09-20T07:25:07.443Z,77.50
2017-09-20T07:27:34.934Z,77.70
2017-09-20T07:30:01.888Z,76.30
2017-09-20T07:32:28.834Z,75.80
2017-09-20T07:34:55.752Z,75.80
2017-09-20T07:37:23.437Z,75.90
2017-09-20T07:39:50.313Z,75.90
2017-09-20T07:42:17.260Z,75.60
2017-09-20T07:44:44.143Z,75.50
2017-09-20T07:47:11.080Z,75.70
2017-09-20T07:49:38.045Z,75.70
2017-09-20T07:52:05.700Z,76.90
2017-09-20T07:54:32.647Z,76.20
2017-09-20T07:56:59.573Z,76.20
2017-09-20T07:59:26.508Z,75.10
2017-09-20T08:01:53.382Z,75.90
2017-09-20T08:04:20.266Z,75.10
2017-09-20T08:06:47.203Z,74.60
2017-09-20T08:09:14.085Z,75.00
2017-09-20T08:11:40.980Z,74.80
2017-09-20T08:14:08.721Z,73.50
2017-09-20T08:16:35.604Z,73.50
2017-09-20T08:19:02.541Z,73.00
2017-09-20T08:21:30.165Z,70.80
2017-09-20T08:23:57.040Z,70.70
2017-09-20T08:26:24.745Z,69.60
2017-09-20T08:28:51.689Z,69.60
2017-09-20T08:31:18.596Z,68.20
2017-09-20T08:33:46.215Z,67.60
2017-09-20T08:36:13.233Z,67.60
2017-09-20T08:38:40.193Z,68.10
2017-09-20T08:41:07.217Z,68.60
2017-09-20T08:43:34.167Z,67.00
2017-09-20T08:46:01.228Z,68.00
2017-09-20T08:48:28.124Z,68.70
2017-09-20T08:50:54.984Z,67.90
2017-09-20T08:53:21.928Z,67.50
2017-09-20T08:55:48.864Z,68.20
2017-09-20T08:58:15.725Z,68.10
2017-09-20T09:00:42.592Z,68.10
2017-09-20T09:03:09.549Z,68.80
2017-09-20T09:05:36.484Z,68.50
2017-09-20T09:08:03.417Z,68.20
2017-09-20T09:10:31.060Z,67.00
2017-09-20T09:12:58.052Z,67.00
2017-09-20T09:15:25.954Z,67.30
2017-09-20T09:17:52.811Z,67.30
2017-09-20T09:20:19.825Z,66.80
2017-09-20T09:22:46.683Z,66.60
2017-09-20T09:25:13.624Z,66.70
2017-09-20T09:27:40.513Z,66.40
2017-09-20T09:30:08.122Z,66.40
2017-09-20T09:32:35.117Z,66.30
2017-09-20T09:35:02.807Z,65.80
2017-09-20T09:37:29.763Z,65.80
2017-09-20T09:39:56.709Z,65.80
2017-09-20T09:42:23.716Z,65.60
2017-09-20T09:44:50.648Z,65.50
2017-09-20T09:47:18.290Z,65.10
2017-09-20T09:49:45.216Z,64.90
2017-09-20T09:52:12.163Z,65.30
2017-09-20T09:54:39.113Z,65.10
2017-09-20T09:57:06.064Z,63.90
2017-09-20T09:59:33.006Z,63.10
2017-09-20T10:01:59.884Z,62.60
2017-09-20T10:04:26.903Z,63.10
2017-09-20T10:06:53.839Z,62.00
2017-09-20T10:09:20.876Z,61.00
2017-09-20T10:11:47.757Z,59.60
2017-09-20T10:14:14.654Z,57.10
2017-09-20T10:16:42.360Z,56.80
2017-09-20T10:19:10.028Z,56.20
2017-09-20T10:21:37.001Z,56.20
2017-09-20T10:24:03.958Z,54.40
2017-09-20T10:26:31.601Z,53.80
2017-09-20T10:28:58.560Z,53.70
2017-09-20T10:31:25.430Z,52.80
2017-09-20T10:33:52.360Z,51.60
2017-09-20T10:36:20.056Z,52.20
2017-09-20T10:38:46.999Z,51.60
2017-09-20T10:41:13.865Z,50.40
2017-09-20T10:43:40.740Z,49.80
2017-09-20T10:46:07.685Z,50.60
2017-09-20T10:48:34.629Z,48.40
2017-09-20T10:51:01.631Z,49.90
2017-09-20T10:53:28.515Z,50.50
2017-09-20T10:55:55.453Z,50.30
2017-09-20T10:58:22.309Z,50.60
2017-09-20T11:00:49.218Z,51.60
2017-09-20T11:03:17.247Z,51.70
2017-09-20T11:05:45.141Z,51.10
2017-09-20T11:08:12.034Z,51.20
2017-09-20T11:10:38.964Z,51.90
2017-09-20T11:13:05.852Z,52.50
2017-09-20T11:15:32.746Z,52.10
2017-09-20T11:17:59.683Z,52.50
2017-09-20T11:20:26.637Z,52.50
2017-09-20T11:22:53.600Z,52.00
2017-09-20T11:25:20.482Z,51.90
2017-09-20T11:27:47.488Z,51.80
2017-09-20T11:30:14.431Z,51.50
2017-09-20T11:32:41.293Z,51.90
2017-09-20T11:35:08.304Z,51.70
2017-09-20T11:37:35.240Z,51.70
2017-09-20T11:40:02.133Z,50.80
2017-09-20T11:42:29.105Z,50.80
2017-09-20T11:44:56.017Z,49.70
2017-09-20T11:47:22.948Z,48.00
2017-09-20T11:49:49.821Z,47.60
2017-09-20T11:52:16.870Z,48.70
2017-09-20T11:54:43.830Z,48.80
2017-09-20T11:57:10.758Z,49.50
2017-09-20T11:59:37.764Z,50.00
2017-09-20T12:02:06.073Z,50.00
2017-09-20T12:04:33.997Z,50.20
2017-09-20T12:07:01.714Z,50.40
2017-09-20T12:09:29.034Z,50.30
2017-09-20T12:11:55.973Z,49.40
2017-09-20T12:14:23.020Z,48.80
2017-09-20T12:16:49.982Z,48.70
2017-09-20T12:19:22.350Z,49.50
2017-09-20T12:21:49.679Z,50.00
2017-09-20T12:24:16.677Z,49.90
2017-09-20T12:26:43.652Z,49.40
2017-09-20T12:29:10.528Z,49.40
2017-09-20T12:31:39.191Z,49.40
2017-09-20T12:34:06.093Z,49.60
2017-09-20T12:36:37.747Z,49.50
2017-09-20T12:39:05.382Z,50.00
2017-09-20T12:41:36.020Z,50.60
2017-09-20T12:44:02.930Z,50.20
2017-09-20T12:46:30.146Z,50.40
2017-09-20T12:48:59.879Z,49.90
2017-09-20T12:51:41.002Z,49.90
2017-09-20T12:54:14.671Z,50.20
2017-09-20T12:56:54.494Z,49.90
2017-09-20T12:59:35.574Z,48.00
2017-09-20T13:02:13.523Z,48.40
2017-09-20T13:04:46.972Z,49.90
2017-09-20T13:07:17.422Z,49.30
2017-09-20T13:09:48.909Z,48.60
2017-09-20T13:12:21.437Z,48.90
2017-09-20T13:14:58.344Z,47.10
2017-09-20T13:17:37.679Z,47.50
2017-09-20T13:20:18.180Z,47.20
2017-09-20T13:22:45.971Z,46.00
2017-09-20T13:25:12.853Z,46.10
2017-09-20T13:27:40.078Z,46.50
2017-09-20T13:30:08.905Z,45.60
2017-09-20T13:32:41.207Z,46.90
2017-09-20T13:35:10.444Z,47.70
2017-09-20T13:37:39.151Z,48.70
2017-09-20T13:40:08.627Z,49.90
2017-09-20T13:42:35.510Z,50.70
2017-09-20T13:45:08.158Z,51.20
2017-09-20T13:47:41.210Z,52.00
2017-09-20T13:50:17.150Z,52.00
2017-09-20T13:52:49.413Z,53.20
2017-09-20T13:55:17.573Z,53.90
2017-09-20T13:57:45.045Z,53.90
2017-09-20T14:00:14.781Z,55.80
2017-09-20T14:02:41.725Z,55.10
2017-09-20T14:05:08.697Z,55.00
2017-09-20T14:07:35.836Z,55.20
2017-09-20T14:10:03.750Z,55.20
2017-09-20T14:12:30.666Z,55.00
2017-09-20T14:15:01.446Z,56.40
2017-09-20T14:17:28.527Z,57.60
2017-09-20T14:19:58.657Z,58.40
2017-09-20T14:22:25.627Z,57.80
2017-09-20T14:24:55.148Z,57.80
2017-09-20T14:27:22.144Z,57.10
2017-09-20T14:29:49.771Z,57.00
2017-09-20T14:32:16.647Z,57.00
2017-09-20T14:34:45.420Z,56.20
2017-09-20T14:37:12.419Z,56.10
2017-09-20T14:39:39.348Z,55.00
2017-09-20T14:42:06.215Z,54.00
2017-09-20T14:44:33.166Z,52.40
2017-09-20T14:47:00.033Z,52.60
2017-09-20T14:49:27.003Z,51.60
2017-09-20T14:51:54.697Z,50.80
2017-09-20T14:54:21.562Z,50.70
2017-09-20T14:56:48.551Z,51.40
2017-09-20T14:59:15.495Z,53.00
2017-09-20T15:01:42.372Z,53.70
2017-09-20T15:04:09.240Z,54.20
2017-09-20T15:06:36.212Z,54.80
2017-09-20T15:09:03.198Z,55.20
2017-09-20T15:11:30.885Z,54.70
2017-09-20T15:13:57.765Z,54.70
2017-09-20T15:16:24.625Z,54.70
2017-09-20T15:18:51.577Z,55.20
2017-09-20T15:21:18.455Z,54.50
2017-09-20T15:23:45.407Z,54.90
2017-09-20T15:26:12.356Z,54.70
2017-09-20T15:28:39.295Z,54.90
2017-09-20T15:31:06.168Z,55.70
2017-09-20T15:33:33.089Z,55.70
2017-09-20T15:36:00.050Z,57.60
2017-09-20T15:38:26.906Z,58.30
2017-09-20T15:40:53.861Z,59.20
2017-09-20T15:43:20.826Z,59.70
2017-09-20T15:45:47.696Z,60.60
2017-09-20T15:48:15.303Z,60.80
2017-09-20T15:50:42.248Z,60.80
2017-09-20T15:53:09.120Z,61.50
2017-09-20T15:55:36.050Z,62.20
2017-09-20T15:58:02.946Z,62.60
2017-09-20T16:00:30.608Z,63.60
2017-09-20T16:02:58.197Z,64.50
2017-09-20T16:05:25.085Z,64.40
2017-09-20T16:07:52.037Z,65.10
2017-09-20T16:10:19.024Z,65.40
2017-09-20T16:12:45.963Z,65.50
2017-09-20T16:15:13.575Z,66.30
2017-09-20T16:17:40.502Z,65.60
2017-09-20T16:20:07.363Z,65.90
2017-09-20T16:22:34.293Z,65.60
2017-09-20T16:25:01.165Z,65.70
2017-09-20T16:27:28.180Z,66.00
2017-09-20T16:29:56.081Z,66.10
2017-09-20T16:32:22.937Z,65.90
2017-09-20T16:34:49.893Z,66.10
2017-09-20T16:37:16.812Z,65.70
2017-09-20T16:39:43.812Z,66.10
2017-09-20T16:42:10.706Z,66.50
2017-09-20T16:44:41.075Z,66.30
2017-09-20T16:47:08.687Z,65.80
2017-09-20T16:49:35.728Z,65.90
2017-09-20T16:52:05.675Z,66.00
2017-09-20T16:54:33.424Z,66.00
2017-09-20T16:57:00.398Z,66.00
2017-09-20T16:59:27.365Z,66.60
2017-09-20T17:01:54.366Z,66.60
2017-09-20T17:04:21.292Z,66.90
2017-09-20T17:06:48.170Z,67.30
2017-09-20T17:09:15.058Z,67.90
2017-09-20T17:11:42.000Z,68.50
2017-09-20T17:14:08.866Z,68.90
2017-09-20T17:16:35.831Z,69.30
2017-09-20T17:19:02.745Z,70.20
2017-09-20T17:21:29.753Z,70.70
2017-09-20T17:23:56.697Z,71.10
2017-09-20T17:26:36.591Z,71.20
2017-09-20T17:29:17.918Z,71.40
2017-09-20T17:34:36.039Z,72.00
2017-09-20T17:37:17.960Z,72.60
2017-09-20T17:45:09.445Z,73.90
2017-09-20T17:47:36.450Z,73.90
2017-09-20T17:50:03.429Z,74.00
2017-09-20T17:52:30.318Z,74.50
2017-09-20T17:54:57.293Z,74.50
2017-09-20T17:57:24.572Z,74.80
2017-09-20T17:59:51.540Z,75.00
2017-09-20T18:02:18.425Z,75.10
2017-09-20T18:04:45.325Z,75.10
2017-09-20T18:07:12.272Z,75.10
2017-09-20T18:09:39.523Z,75.60
2017-09-20T18:12:06.398Z,75.50
2017-09-20T18:14:33.409Z,75.50
2017-09-20T18:17:01.261Z,75.60
2017-09-20T18:19:35.995Z,75.80
2017-09-20T18:22:14.630Z,76.20
2017-09-20T18:24:42.961Z,76.10
2017-09-20T18:27:09.931Z,76.50
2017-09-20T18:29:36.880Z,76.70
2017-09-20T18:32:06.621Z,76.60
2017-09-20T18:34:33.576Z,76.80
2017-09-20T18:37:12.153Z,76.80
2017-09-20T18:39:45.413Z,76.80
2017-09-20T18:42:13.168Z,77.00
2017-09-20T18:44:42.479Z,76.90
2017-09-20T18:47:11.408Z,77.00
2017-09-20T18:49:48.291Z,77.30
2017-09-20T18:52:16.611Z,77.20
2017-09-20T18:54:44.259Z,77.20
2017-09-20T18:57:11.233Z,77.20
2017-09-20T18:59:39.308Z,77.30
2017-09-20T19:02:06.298Z,77.30
2017-09-20T19:04:33.185Z,77.10
2017-09-20T19:07:00.151Z,77.30
2017-09-20T19:09:30.991Z,77.20
2017-09-20T19:11:58.080Z,77.30
2017-09-20T19:14:24.980Z,77.10
2017-09-20T19:16:53.389Z,77.10
2017-09-20T19:19:21.932Z,77.20
2017-09-20T19:21:52.408Z,77.30
2017-09-20T19:24:20.527Z,77.30
2017-09-20T19:26:49.510Z,77.60
2017-09-20T19:29:16.616Z,78.00
2017-09-20T19:31:55.128Z,78.60
2017-09-20T19:34:22.736Z,77.80
2017-09-20T19:36:54.019Z,77.50
2017-09-20T19:39:32.504Z,77.50
2017-09-20T19:42:14.061Z,77.50
2017-09-20T19:44:58.185Z,77.40
2017-09-20T19:53:06.943Z,77.30
2017-09-20T19:55:44.388Z,77.20
2017-09-20T19:58:13.816Z,77.40
2017-09-20T20:00:40.765Z,77.40
2017-09-20T20:03:08.452Z,77.90
2017-09-20T20:05:35.433Z,77.90
2017-09-20T20:08:02.318Z,77.60
2017-09-20T20:10:29.961Z,77.60
2017-09-20T20:12:56.920Z,77.60
2017-09-20T20:15:23.897Z,77.60
2017-09-20T20:17:50.805Z,77.50
2017-09-20T20:20:23.389Z,77.30
2017-09-20T20:22:50.774Z,77.40
2017-09-20T20:25:19.355Z,77.50
2017-09-20T20:27:49.756Z,77.40
2017-09-20T20:30:17.341Z,77.70
2017-09-20T20:32:45.558Z,78.00
2017-09-20T20:35:12.558Z,77.90
2017-09-20T20:37:39.451Z,77.50
2017-09-20T20:40:06.412Z,77.60
2017-09-20T20:42:33.485Z,77.50
2017-09-20T20:45:00.442Z,77.60
2017-09-20T20:47:30.792Z,78.00
2017-09-20T20:50:01.570Z,77.90
2017-09-20T20:52:28.705Z,78.00
2017-09-20T20:54:55.642Z,77.60
2017-09-20T20:57:22.787Z,77.30
2017-09-20T20:59:51.077Z,77.20
2017-09-20T21:02:17.967Z,76.80
2017-09-20T21:04:45.694Z,77.10
2017-09-20T21:07:12.699Z,77.00
2017-09-20T21:09:39.768Z,76.80
2017-09-20T21:12:08.534Z,77.20
2017-09-20T21:14:35.538Z,77.30
2017-09-20T21:17:03.165Z,77.60
2017-09-20T21:19:30.990Z,77.80
2017-09-20T21:22:01.650Z,77.90
2017-09-20T21:24:30.249Z,77.80
2017-09-20T21:26:58.347Z,77.70
2017-09-20T21:29:26.826Z,77.80
2017-09-20T21:31:55.613Z,77.80
2017-09-20T21:34:22.568Z,77.00
2017-09-20T21:36:49.525Z,76.50
2017-09-20T21:39:16.536Z,76.40
2017-09-20T21:41:43.519Z,76.50
2017-09-20T21:44:10.422Z,76.70
2017-09-20T21:46:37.371Z,76.50
2017-09-20T21:49:04.248Z,77.20
2017-09-20T21:51:31.192Z,77.70
2017-09-20T21:54:11.625Z,78.00
2017-09-20T21:56:39.666Z,78.00
2017-09-20T21:59:06.689Z,77.80
2017-09-20T22:01:33.611Z,78.30
2017-09-20T22:04:00.531Z,77.50
2017-09-20T22:06:27.539Z,77.10
2017-09-20T22:08:54.432Z,77.20
2017-09-20T22:11:24.479Z,77.70
2017-09-20T22:13:51.472Z,77.90
2017-09-20T22:16:30.512Z,77.40
2017-09-20T22:19:09.424Z,77.90
2017-09-20T22:21:49.088Z,77.10
2017-09-20T22:24:28.178Z,77.10
2017-09-20T22:26:54.790Z,77.40
2017-09-20T22:29:21.728Z,77.20
2017-09-20T22:31:48.621Z,77.30
2017-09-20T22:34:16.317Z,77.30
2017-09-20T22:36:43.220Z,77.30
2017-09-20T22:39:10.958Z,78.20
2017-09-20T22:41:37.904Z,77.70
2017-09-20T22:44:04.817Z,77.80
2017-09-20T22:46:31.769Z,77.90
2017-09-20T22:48:58.631Z,78.00
2017-09-20T22:51:25.656Z,78.10
2017-09-20T22:53:52.623Z,78.10
2017-09-20T22:56:19.619Z,78.30
2017-09-20T22:58:46.580Z,78.50
2017-09-20T23:01:14.273Z,79.10
2017-09-20T23:03:41.179Z,79.00
2017-09-20T23:06:08.145Z,79.30
2017-09-20T23:08:35.042Z,79.00
2017-09-20T23:11:02.003Z,79.00
2017-09-20T23:13:28.953Z,79.10
2017-09-20T23:15:55.837Z,79.90
2017-09-20T23:18:22.820Z,79.30
2017-09-20T23:20:49.716Z,79.20
2017-09-20T23:23:16.672Z,79.40
2017-09-20T23:25:43.616Z,79.60
2017-09-20T23:28:11.286Z,80.30
2017-09-20T23:30:38.634Z,79.60
2017-09-20T23:33:05.863Z,79.30
2017-09-20T23:35:33.171Z,79.30
2017-09-20T23:38:00.624Z,79.30
2017-09-20T23:40:27.532Z,79.40
2017-09-20T23:42:54.495Z,79.70
2017-09-20T23:45:21.450Z,80.00
2017-09-20T23:47:48.347Z,79.90
2017-09-20T23:50:15.305Z,80.00
2017-09-20T23:52:42.245Z,80.20
2017-09-20T23:55:09.119Z,80.20
2017-09-20T23:57:36.066Z,79.90
